Locke Mills, Pennsylvania
Current Conditions -  °F | °C
As of 11:35 PM on Thursday 18 Dec 2014 (Local Time) from KUNV Reporting Station
Overcast Overcast  
Wind Chill: 22°   Ceiling: 1800
Heat Index: 30°   Visibility: 10mi
Dew Point: 24°   Wind: 8mph
Humidity: 79%   Direction: 290°WNW
Pressure: 30.05"   Gusts: NA
Location:  40.7567°N, 77.488°W
Report Text: KUNV 190435Z AUTO 29007KT 10SM BKN018 OVC026 M01/M04 A3005 RMK AO2 T10111043
Loading
Personal Weather Stations






























Interactive Weather Map New forecast layout! Learn more

10-Day Weather Forecast

Advertisements
Track Severe Weather on mobile